Time;durP1;ratioP1;P1;durP2;ratioP2;P2;SDS_P1;SDS_P2;PMS_P1;PMS_P2;Temp;Humidity;BMP_temperature;BMP_pressure;BME280_temperature;BME280_humidity;BME280_pressure;Samples;Min_cycle;Max_cycle;Signal;HPM_P1;HPM_P2
2022/06/05 00:01:33;;;;;;;;;;;;;;;;;;5047899;28;19936;-50
2022/06/05 00:03:59;;;;;;;;;;;;;;;;;;5047862;28;19948;-47
2022/06/05 00:06:26;;;;;;;;;;;;;;;;;;5047754;28;19958;-49
2022/06/05 00:08:52;;;;;;;;;;;;;;;;;;5047872;28;19935;-50
2022/06/05 00:11:18;;;;;;;;;;;;;;;;;;5048095;28;19943;-49
2022/06/05 00:13:49;;;;;;;;;;;;;;;;;;5065888;28;20423;-49
2022/06/05 00:16:15;;;;;;;;;;;;;;;;;;5067875;28;20003;-47
2022/06/05 00:18:42;;;;;;;;;;;;;;;;;;5066913;28;19983;-49
2022/06/05 00:21:08;;;;;;;;;;;;;;;;;;5067911;28;19916;-47
2022/06/05 00:23:34;;;;;;;;;;;;;;;;;;5068007;28;19908;-47
2022/06/05 00:25:59;;;;;;;;;;;;;;;;;;5067684;28;19912;-50
2022/06/05 00:28:26;;;;;;;;;;;;;;;;;;5067340;28;19995;-48
2022/06/05 00:30:52;;;;;;;;;;;;;;;;;;5067521;28;19951;-49
2022/06/05 00:33:18;;;;;;;;;;;;;;;;;;5066375;28;19912;-48
2022/06/05 00:35:45;;;;;;;;;;;;;;;;;;5067192;28;19912;-49
2022/06/05 00:38:12;;;;;;;;;;;;;;;;;;5067698;28;19927;-50
2022/06/05 00:40:38;;;;;;;;;;;;;;;;;;5067661;28;19988;-46
2022/06/05 00:43:04;;;;;;;;;;;;;;;;;;5067363;28;20049;-50
2022/06/05 00:45:29;;;;;;;;;;;;;;;;;;5049319;28;20456;-48
2022/06/05 00:47:56;;;;;;;;;;;;;;;;;;5047074;28;19908;-48
2022/06/05 00:50:22;;;;;;;;;;;;;;;;;;5047237;28;19904;-50
2022/06/05 00:52:48;;;;;;;;;;;;;;;;;;5046985;28;19909;-47
2022/06/05 00:55:14;;;;;;;;;;;;;;;;;;5046951;28;20375;-49
2022/06/05 00:57:40;;;;;;;;;;;;;;;;;;5047116;28;19908;-46
2022/06/05 01:00:07;;;;;;;;;;;;;;;;;;5047275;28;19919;-46
2022/06/05 01:02:33;;;;;;;;;;;;;;;;;;5046588;28;19909;-49
2022/06/05 01:05:00;;;;;;;;;;;;;;;;;;5046744;28;20296;-49
2022/06/05 01:07:26;;;;;;;;;;;;;;;;;;5046443;28;19904;-46
2022/06/05 01:09:52;;;;;;;;;;;;;;;;;;5045413;28;19992;-49
2022/06/05 01:12:19;;;;;;;;;;;;;;;;;;5047508;28;20019;-46
2022/06/05 01:14:45;;;;;;;;;;;;;;;;;;5046340;28;19912;-47
2022/06/05 01:17:11;;;;;;;;;;;;;;;;;;5046462;28;19915;-47
2022/06/05 01:19:38;;;;;;;;;;;;;;;;;;5046754;28;19912;-51
2022/06/05 01:22:04;;;;;;;;;;;;;;;;;;5046644;28;20007;-48
2022/06/05 01:24:29;;;;;;;;;;;;;;;;;;5046341;28;20000;-47
2022/06/05 01:26:55;;;;;;;;;;;;;;;;;;5046389;28;19904;-48
2022/06/05 01:29:21;;;;;;;;;;;;;;;;;;5046404;28;19959;-47
2022/06/05 01:31:47;;;;;;;;;;;;;;;;;;5049149;28;20012;-49
2022/06/05 01:34:13;;;;;;;;;;;;;;;;;;5058253;28;19916;-48
2022/06/05 01:36:39;;;;;;;;;;;;;;;;;;5068166;28;20007;-47
2022/06/05 01:39:05;;;;;;;;;;;;;;;;;;5065088;28;19916;-47
2022/06/05 01:41:31;;;;;;;;;;;;;;;;;;5047373;28;19920;-50
2022/06/05 01:43:57;;;;;;;;;;;;;;;;;;5047652;28;19905;-49
2022/06/05 01:46:23;;;;;;;;;;;;;;;;;;5047744;28;19950;-49
2022/06/05 01:48:49;;;;;;;;;;;;;;;;;;5047285;28;19909;-49
2022/06/05 01:51:15;;;;;;;;;;;;;;;;;;5047613;28;20376;-49
2022/06/05 01:53:41;;;;;;;;;;;;;;;;;;5046920;28;20303;-48
2022/06/05 01:56:08;;;;;;;;;;;;;;;;;;5070920;28;19912;-50
2022/06/05 01:58:34;;;;;;;;;;;;;;;;;;5067071;28;19947;-49
2022/06/05 02:01:00;;;;;;;;;;;;;;;;;;5066791;28;19960;-49
2022/06/05 02:03:26;;;;;;;;;;;;;;;;;;5058873;28;19986;-46
2022/06/05 02:05:52;;;;;;;;;;;;;;;;;;5069550;28;19912;-49
2022/06/05 02:08:18;;;;;;;;;;;;;;;;;;5067048;28;19904;-49
2022/06/05 02:10:43;;;;;;;;;;;;;;;;;;5066976;28;19931;-46
2022/06/05 02:13:09;;;;;;;;;;;;;;;;;;5067716;28;19908;-49
2022/06/05 02:15:35;;;;;;;;;;;;;;;;;;5067357;28;19904;-50
2022/06/05 02:18:02;;;;;;;;;;;;;;;;;;5066886;28;19950;-49
2022/06/05 02:20:28;;;;;;;;;;;;;;;;;;5060546;28;20280;-46
2022/06/05 02:22:54;;;;;;;;;;;;;;;;;;5066191;28;19917;-48
2022/06/05 02:25:20;;;;;;;;;;;;;;;;;;5065837;28;20012;-48
2022/06/05 02:27:46;;;;;;;;;;;;;;;;;;5063601;28;19916;-48
2022/06/05 02:30:12;;;;;;;;;;;;;;;;;;5066846;28;19908;-46
2022/06/05 02:32:39;;;;;;;;;;;;;;;;;;5065957;28;19965;-49
2022/06/05 02:35:05;;;;;;;;;;;;;;;;;;5066883;28;19913;-49
2022/06/05 02:37:32;;;;;;;;;;;;;;;;;;5058724;28;20356;-47
2022/06/05 02:39:58;;;;;;;;;;;;;;;;;;5046440;28;19956;-49
2022/06/05 02:42:25;;;;;;;;;;;;;;;;;;5047984;28;20383;-47
2022/06/05 02:44:52;;;;;;;;;;;;;;;;;;5046233;28;19912;-49
2022/06/05 02:47:19;;;;;;;;;;;;;;;;;;5060954;28;19908;-50
2022/06/05 02:49:45;;;;;;;;;;;;;;;;;;5064900;28;19909;-48
2022/06/05 02:52:12;;;;;;;;;;;;;;;;;;5065116;28;19919;-48
2022/06/05 02:54:38;;;;;;;;;;;;;;;;;;5065525;28;20034;-50
2022/06/05 02:57:04;;;;;;;;;;;;;;;;;;5065134;28;19995;-48
2022/06/05 02:59:31;;;;;;;;;;;;;;;;;;5064622;28;19908;-50
2022/06/05 03:04:42;;;;;;;;;;;;;;;;;;5057744;28;20139;-48
2022/06/05 03:07:09;;;;;;;;;;;;;;;;;;5045655;28;19909;-49
2022/06/05 03:09:35;;;;;;;;;;;;;;;;;;5044997;28;19919;-49
2022/06/05 03:12:01;;;;;;;;;;;;;;;;;;5045136;28;19918;-49
2022/06/05 03:14:27;;;;;;;;;;;;;;;;;;5044726;28;20299;-48
2022/06/05 03:16:54;;;;;;;;;;;;;;;;;;5044746;28;19905;-47
2022/06/05 03:19:20;;;;;;;;;;;;;;;;;;5044843;28;19912;-46
2022/06/05 03:21:47;;;;;;;;;;;;;;;;;;5044669;28;19913;-48
2022/06/05 03:24:14;;;;;;;;;;;;;;;;;;5044987;28;19912;-49
2022/06/05 03:26:39;;;;;;;;;;;;;;;;;;5045256;28;19962;-47
2022/06/05 03:29:07;;;;;;;;;;;;;;;;;;5045549;28;19909;-47
2022/06/05 03:31:34;;;;;;;;;;;;;;;;;;5044143;28;19908;-46
2022/06/05 03:34:00;;;;;;;;;;;;;;;;;;5047792;28;19909;-49
2022/06/05 03:36:26;;;;;;;;;;;;;;;;;;5048393;28;19911;-46
2022/06/05 03:38:53;;;;;;;;;;;;;;;;;;5048449;28;20310;-50
2022/06/05 03:41:19;;;;;;;;;;;;;;;;;;5048706;28;19908;-46
2022/06/05 03:43:47;;;;;;;;;;;;;;;;;;5048162;28;20330;-47
2022/06/05 03:46:14;;;;;;;;;;;;;;;;;;5048238;28;19905;-49
2022/06/05 03:48:40;;;;;;;;;;;;;;;;;;5048758;28;19984;-47
2022/06/05 03:51:06;;;;;;;;;;;;;;;;;;5048926;28;19908;-47
2022/06/05 03:53:31;;;;;;;;;;;;;;;;;;5048026;28;19908;-49
2022/06/05 03:55:57;;;;;;;;;;;;;;;;;;5048114;28;20076;-49
2022/06/05 03:58:23;;;;;;;;;;;;;;;;;;5048044;28;19905;-48
2022/06/05 04:00:49;;;;;;;;;;;;;;;;;;5047725;28;19913;-48
2022/06/05 04:03:15;;;;;;;;;;;;;;;;;;5048206;28;19915;-48
2022/06/05 04:05:42;;;;;;;;;;;;;;;;;;5047993;28;19908;-50
2022/06/05 04:08:09;;;;;;;;;;;;;;;;;;5048475;28;19905;-47
2022/06/05 04:10:35;;;;;;;;;;;;;;;;;;5048719;28;19944;-47
2022/06/05 04:13:02;;;;;;;;;;;;;;;;;;5048245;28;19944;-47
2022/06/05 04:15:29;;;;;;;;;;;;;;;;;;5047504;28;19901;-49
2022/06/05 04:17:54;;;;;;;;;;;;;;;;;;5047641;28;19919;-47
2022/06/05 04:20:21;;;;;;;;;;;;;;;;;;5047811;28;19913;-49
2022/06/05 04:22:47;;;;;;;;;;;;;;;;;;5047832;28;20167;-50
2022/06/05 04:25:14;;;;;;;;;;;;;;;;;;5047762;28;19991;-50
2022/06/05 04:27:40;;;;;;;;;;;;;;;;;;5047980;28;20352;-48
2022/06/05 04:30:06;;;;;;;;;;;;;;;;;;5047794;28;19995;-46
2022/06/05 04:32:32;;;;;;;;;;;;;;;;;;5047437;28;19954;-48
2022/06/05 04:34:58;;;;;;;;;;;;;;;;;;5047531;28;19904;-50
2022/06/05 04:37:25;;;;;;;;;;;;;;;;;;5047713;28;19909;-49
2022/06/05 04:39:51;;;;;;;;;;;;;;;;;;5047320;28;19909;-47
2022/06/05 04:42:17;;;;;;;;;;;;;;;;;;5047293;28;19912;-48
2022/06/05 04:44:43;;;;;;;;;;;;;;;;;;5046663;28;20004;-46
2022/06/05 04:47:10;;;;;;;;;;;;;;;;;;5047809;28;19905;-49
2022/06/05 04:49:36;;;;;;;;;;;;;;;;;;5047521;28;19916;-49
2022/06/05 04:52:02;;;;;;;;;;;;;;;;;;5047329;28;19908;-48
2022/06/05 04:54:27;;;;;;;;;;;;;;;;;;5047224;28;19905;-50
2022/06/05 04:56:53;;;;;;;;;;;;;;;;;;5047093;28;19980;-46
2022/06/05 04:59:19;;;;;;;;;;;;;;;;;;5046984;28;19904;-49
2022/06/05 05:01:45;;;;;;;;;;;;;;;;;;5046825;28;19919;-46
2022/06/05 05:04:12;;;;;;;;;;;;;;;;;;5046959;28;19908;-47
2022/06/05 05:06:38;;;;;;;;;;;;;;;;;;5047426;28;20264;-48
2022/06/05 05:09:04;;;;;;;;;;;;;;;;;;5046777;28;19951;-48
2022/06/05 05:11:31;;;;;;;;;;;;;;;;;;5046650;28;19908;-49
2022/06/05 05:13:57;;;;;;;;;;;;;;;;;;5046724;28;20394;-49
2022/06/05 05:16:23;;;;;;;;;;;;;;;;;;5046517;28;20197;-47
2022/06/05 05:18:50;;;;;;;;;;;;;;;;;;5046719;28;19911;-49
2022/06/05 05:21:17;;;;;;;;;;;;;;;;;;5046471;28;20000;-48
2022/06/05 05:23:43;;;;;;;;;;;;;;;;;;5046483;28;19909;-49
2022/06/05 05:26:10;;;;;;;;;;;;;;;;;;5047084;28;19905;-47
2022/06/05 05:28:36;;;;;;;;;;;;;;;;;;5046842;28;19908;-50
2022/06/05 05:31:02;;;;;;;;;;;;;;;;;;5046466;28;19915;-49
2022/06/05 05:33:28;;;;;;;;;;;;;;;;;;5046142;28;20376;-48
2022/06/05 05:35:55;;;;;;;;;;;;;;;;;;5046384;28;19944;-50
2022/06/05 05:38:20;;;;;;;;;;;;;;;;;;5046577;28;19908;-49
2022/06/05 05:43:31;;;;;;;;;;;;;;;;;;5046243;28;19955;-46
2022/06/05 05:45:57;;;;;;;;;;;;;;;;;;5046015;28;19901;-47
2022/06/05 05:48:24;;;;;;;;;;;;;;;;;;5051828;28;20383;-48
2022/06/05 05:50:50;;;;;;;;;;;;;;;;;;5056382;28;20401;-50
2022/06/05 05:53:15;;;;;;;;;;;;;;;;;;5047800;28;19991;-47
2022/06/05 05:55:42;;;;;;;;;;;;;;;;;;5047992;28;19974;-47
2022/06/05 05:58:08;;;;;;;;;;;;;;;;;;5067226;28;19904;-47
2022/06/05 06:00:34;;;;;;;;;;;;;;;;;;5065558;28;19923;-47
2022/06/05 06:03:00;;;;;;;;;;;;;;;;;;5066370;28;19912;-47
2022/06/05 06:05:26;;;;;;;;;;;;;;;;;;5065882;28;19995;-48
2022/06/05 06:07:51;;;;;;;;;;;;;;;;;;5066168;28;19937;-46
2022/06/05 06:10:17;;;;;;;;;;;;;;;;;;5065808;28;20445;-49
2022/06/05 06:12:43;;;;;;;;;;;;;;;;;;5065858;28;19999;-48
2022/06/05 06:15:10;;;;;;;;;;;;;;;;;;5066468;28;20371;-49
2022/06/05 06:17:37;;;;;;;;;;;;;;;;;;5066127;28;19904;-47
2022/06/05 06:20:03;;;;;;;;;;;;;;;;;;5065656;28;19904;-49
2022/06/05 06:22:30;;;;;;;;;;;;;;;;;;5065778;28;19909;-49
2022/06/05 06:24:57;;;;;;;;;;;;;;;;;;5065701;28;20022;-48
2022/06/05 06:27:22;;;;;;;;;;;;;;;;;;5065679;28;19905;-49
2022/06/05 06:29:48;;;;;;;;;;;;;;;;;;5073163;28;19977;-49
2022/06/05 06:32:15;;;;;;;;;;;;;;;;;;5072062;28;19939;-48
2022/06/05 06:34:41;;;;;;;;;;;;;;;;;;5066032;28;19904;-48
2022/06/05 06:37:07;;;;;;;;;;;;;;;;;;5068609;28;19977;-46
2022/06/05 06:39:33;;;;;;;;;;;;;;;;;;5066455;28;19909;-49
2022/06/05 06:41:59;;;;;;;;;;;;;;;;;;5066937;28;19952;-45
2022/06/05 06:44:25;;;;;;;;;;;;;;;;;;5066317;28;20375;-45
2022/06/05 06:46:51;;;;;;;;;;;;;;;;;;5066897;28;19909;-48
2022/06/05 06:49:17;;;;;;;;;;;;;;;;;;5066800;28;19912;-49
2022/06/05 06:51:43;;;;;;;;;;;;;;;;;;5075139;28;19931;-49
2022/06/05 06:54:09;;;;;;;;;;;;;;;;;;5087685;28;20371;-47
2022/06/05 06:56:35;;;;;;;;;;;;;;;;;;5081378;28;19924;-49
2022/06/05 06:59:01;;;;;;;;;;;;;;;;;;5066665;28;19917;-45
2022/06/05 07:01:27;;;;;;;;;;;;;;;;;;5066616;28;19947;-47
2022/06/05 07:03:53;;;;;;;;;;;;;;;;;;5067035;28;19927;-48
2022/06/05 07:06:20;;;;;;;;;;;;;;;;;;5066830;28;19912;-49
2022/06/05 07:08:46;;;;;;;;;;;;;;;;;;5069088;28;19905;-47
2022/06/05 07:11:12;;;;;;;;;;;;;;;;;;5078334;28;19915;-49
2022/06/05 07:13:38;;;;;;;;;;;;;;;;;;5091346;28;19904;-47
2022/06/05 07:16:04;;;;;;;;;;;;;;;;;;5091053;28;19904;-49
2022/06/05 07:18:30;;;;;;;;;;;;;;;;;;5089850;28;20397;-48
2022/06/05 07:20:56;;;;;;;;;;;;;;;;;;5070598;28;19995;-48
2022/06/05 07:23:22;;;;;;;;;;;;;;;;;;5069071;28;19974;-50
2022/06/05 07:25:48;;;;;;;;;;;;;;;;;;5075641;28;19908;-47
2022/06/05 07:28:14;;;;;;;;;;;;;;;;;;5090670;28;19904;-47
2022/06/05 07:30:40;;;;;;;;;;;;;;;;;;5091076;28;19908;-48
2022/06/05 07:33:06;;;;;;;;;;;;;;;;;;5091238;28;19911;-49
2022/06/05 07:35:32;;;;;;;;;;;;;;;;;;5090509;28;20004;-48
2022/06/05 07:37:57;;;;;;;;;;;;;;;;;;5090597;28;19991;-51
2022/06/05 07:40:23;;;;;;;;;;;;;;;;;;5090043;28;19916;-50
2022/06/05 07:42:49;;;;;;;;;;;;;;;;;;5082422;28;19962;-48
2022/06/05 07:45:15;;;;;;;;;;;;;;;;;;5070260;28;19908;-48
2022/06/05 07:47:43;;;;;;;;;;;;;;;;;;5067498;28;19940;-50
2022/06/05 07:50:09;;;;;;;;;;;;;;;;;;5071109;28;19904;-47
2022/06/05 07:55:21;;;;;;;;;;;;;;;;;;5070792;28;20346;-50
2022/06/05 07:57:48;;;;;;;;;;;;;;;;;;5068719;28;19908;-50
2022/06/05 08:00:14;;;;;;;;;;;;;;;;;;5074622;28;20338;-51
2022/06/05 08:02:40;;;;;;;;;;;;;;;;;;5070143;28;19908;-49
2022/06/05 08:05:07;;;;;;;;;;;;;;;;;;5073999;28;20379;-49
2022/06/05 08:07:33;;;;;;;;;;;;;;;;;;5069201;28;19908;-50
2022/06/05 08:09:59;;;;;;;;;;;;;;;;;;5083148;28;20704;-49
2022/06/05 08:12:25;;;;;;;;;;;;;;;;;;5070951;28;19908;-49
2022/06/05 08:14:51;;;;;;;;;;;;;;;;;;5069267;28;19905;-48
2022/06/05 08:17:17;;;;;;;;;;;;;;;;;;5059022;28;19909;-50
2022/06/05 08:19:44;;;;;;;;;;;;;;;;;;5068509;28;19905;-49
2022/06/05 08:22:10;;;;;;;;;;;;;;;;;;5069142;28;20007;-48
2022/06/05 08:24:36;;;;;;;;;;;;;;;;;;5073434;28;19999;-50
2022/06/05 08:27:02;;;;;;;;;;;;;;;;;;5069972;28;19912;-51
2022/06/05 08:29:28;;;;;;;;;;;;;;;;;;5069639;28;19995;-48
2022/06/05 08:31:54;;;;;;;;;;;;;;;;;;5069658;28;19995;-49
2022/06/05 08:34:20;;;;;;;;;;;;;;;;;;5079891;28;20007;-49
2022/06/05 08:36:46;;;;;;;;;;;;;;;;;;5068852;28;19908;-48
2022/06/05 08:41:56;;;;;;;;;;;;;;;;;;5050135;28;19967;-51
2022/06/05 08:44:22;;;;;;;;;;;;;;;;;;5071990;28;20445;-48
2022/06/05 08:46:48;;;;;;;;;;;;;;;;;;5069644;28;19991;-47
2022/06/05 08:49:14;;;;;;;;;;;;;;;;;;5070948;28;19987;-51
2022/06/05 08:51:40;;;;;;;;;;;;;;;;;;5069600;28;19945;-48
2022/06/05 08:54:06;;;;;;;;;;;;;;;;;;5069544;28;19951;-50
2022/06/05 08:56:32;;;;;;;;;;;;;;;;;;5067303;28;19912;-48
2022/06/05 08:58:58;;;;;;;;;;;;;;;;;;5062408;28;19908;-48
2022/06/05 09:01:24;;;;;;;;;;;;;;;;;;5068244;28;19991;-49
2022/06/05 09:03:51;;;;;;;;;;;;;;;;;;5068282;28;19904;-47
2022/06/05 09:06:17;;;;;;;;;;;;;;;;;;5068172;28;19912;-47
2022/06/05 09:08:44;;;;;;;;;;;;;;;;;;5067964;28;19904;-49
2022/06/05 09:11:11;;;;;;;;;;;;;;;;;;5068311;28;20298;-47
2022/06/05 09:13:38;;;;;;;;;;;;;;;;;;5068261;28;20356;-46
2022/06/05 09:16:05;;;;;;;;;;;;;;;;;;5068325;28;19936;-48
2022/06/05 09:18:35;;;;;;;;;;;;;;;;;;5067556;28;19915;-49
2022/06/05 09:21:00;;;;;;;;;;;;;;;;;;5067846;28;19912;-51
2022/06/05 09:23:26;;;;;;;;;;;;;;;;;;5066544;28;20287;-49
2022/06/05 09:25:52;;;;;;;;;;;;;;;;;;5067775;28;19908;-50
2022/06/05 09:28:18;;;;;;;;;;;;;;;;;;5067352;28;19911;-51
2022/06/05 09:30:44;;;;;;;;;;;;;;;;;;5066748;28;20383;-51
2022/06/05 09:33:10;;;;;;;;;;;;;;;;;;5067566;28;19915;-48
2022/06/05 09:35:37;;;;;;;;;;;;;;;;;;5066506;28;20366;-51
2022/06/05 09:38:03;;;;;;;;;;;;;;;;;;5067507;28;19959;-49
2022/06/05 09:40:30;;;;;;;;;;;;;;;;;;5066850;28;20434;-47
2022/06/05 09:42:57;;;;;;;;;;;;;;;;;;5067380;28;19908;-51
2022/06/05 09:45:23;;;;;;;;;;;;;;;;;;5067358;28;19901;-48
2022/06/05 09:47:49;;;;;;;;;;;;;;;;;;5071716;28;19915;-50
2022/06/05 09:50:15;;;;;;;;;;;;;;;;;;5087501;28;20390;-48
2022/06/05 09:52:42;;;;;;;;;;;;;;;;;;5087409;28;20007;-49
2022/06/05 09:55:08;;;;;;;;;;;;;;;;;;5087950;28;20215;-51
2022/06/05 10:00:18;;;;;;;;;;;;;;;;;;5064401;28;19947;-51
2022/06/05 10:02:44;;;;;;;;;;;;;;;;;;5067129;28;19908;-49
2022/06/05 10:05:10;;;;;;;;;;;;;;;;;;5057055;28;19954;-46
2022/06/05 10:07:36;;;;;;;;;;;;;;;;;;5065312;28;20022;-48
2022/06/05 10:10:02;;;;;;;;;;;;;;;;;;5078307;28;19964;-50
2022/06/05 10:12:28;;;;;;;;;;;;;;;;;;5070308;28;19908;-52
2022/06/05 10:14:54;;;;;;;;;;;;;;;;;;5058815;28;19912;-50
2022/06/05 10:17:20;;;;;;;;;;;;;;;;;;5059228;28;19913;-49
2022/06/05 10:19:46;;;;;;;;;;;;;;;;;;5047533;28;19940;-48
2022/06/05 10:22:12;;;;;;;;;;;;;;;;;;5062955;28;19974;-46
2022/06/05 10:24:38;;;;;;;;;;;;;;;;;;5067810;28;20357;-48
2022/06/05 10:27:04;;;;;;;;;;;;;;;;;;5067980;28;19912;-49
2022/06/05 10:29:30;;;;;;;;;;;;;;;;;;5070395;28;20347;-50
2022/06/05 10:31:56;;;;;;;;;;;;;;;;;;5066536;28;20381;-50
2022/06/05 10:34:22;;;;;;;;;;;;;;;;;;5067727;28;19923;-48
2022/06/05 10:36:48;;;;;;;;;;;;;;;;;;5068198;28;19908;-50
2022/06/05 10:39:14;;;;;;;;;;;;;;;;;;5067351;28;19908;-50
2022/06/05 10:41:40;;;;;;;;;;;;;;;;;;5070265;28;19916;-47
2022/06/05 10:44:07;;;;;;;;;;;;;;;;;;5066909;28;19973;-48
2022/06/05 10:46:33;;;;;;;;;;;;;;;;;;5066847;28;19909;-48
2022/06/05 10:48:59;;;;;;;;;;;;;;;;;;5068574;28;19908;-48
2022/06/05 10:51:25;;;;;;;;;;;;;;;;;;5064894;28;19918;-49
2022/06/05 10:53:52;;;;;;;;;;;;;;;;;;5068962;28;19905;-46
2022/06/05 10:56:18;;;;;;;;;;;;;;;;;;5068098;28;19920;-62
2022/06/05 10:58:44;;;;;;;;;;;;;;;;;;5071995;28;19914;-62
2022/06/05 11:01:10;;;;;;;;;;;;;;;;;;5064201;28;19948;-62
2022/06/05 11:03:36;;;;;;;;;;;;;;;;;;5069787;28;20323;-63
2022/06/05 11:06:02;;;;;;;;;;;;;;;;;;5067509;28;19915;-63
2022/06/05 11:08:28;;;;;;;;;;;;;;;;;;5058109;28;19908;-62
2022/06/05 11:13:42;;;;;;;;;;;;;;;;;;5055385;28;20402;-62
2022/06/05 11:16:09;;;;;;;;;;;;;;;;;;5067659;28;19944;-62
2022/06/05 11:18:38;;;;;;;;;;;;;;;;;;5067225;28;19958;-62
2022/06/05 11:21:04;;;;;;;;;;;;;;;;;;5048185;28;19924;-64
2022/06/05 11:23:30;;;;;;;;;;;;;;;;;;5057090;28;19908;-62
2022/06/05 11:25:56;;;;;;;;;;;;;;;;;;5064451;28;19991;-62
2022/06/05 11:28:22;;;;;;;;;;;;;;;;;;5067241;28;20010;-62
2022/06/05 11:30:49;;;;;;;;;;;;;;;;;;5066255;28;19958;-63
2022/06/05 11:33:15;;;;;;;;;;;;;;;;;;5064723;28;19915;-64
2022/06/05 11:35:41;;;;;;;;;;;;;;;;;;5070863;28;20003;-63
2022/06/05 11:38:07;;;;;;;;;;;;;;;;;;5067584;28;19915;-62
2022/06/05 11:40:33;;;;;;;;;;;;;;;;;;5056994;28;19917;-62
2022/06/05 11:42:59;;;;;;;;;;;;;;;;;;5057924;28;19962;-62
2022/06/05 11:45:26;;;;;;;;;;;;;;;;;;5066724;28;19931;-62
2022/06/05 11:47:52;;;;;;;;;;;;;;;;;;5067152;28;19981;-62
2022/06/05 11:50:18;;;;;;;;;;;;;;;;;;5064924;28;19999;-62
2022/06/05 11:52:44;;;;;;;;;;;;;;;;;;5066903;28;19904;-62
2022/06/05 11:55:10;;;;;;;;;;;;;;;;;;5070026;28;19921;-63
2022/06/05 11:57:36;;;;;;;;;;;;;;;;;;5070684;28;19923;-62
2022/06/05 12:00:02;;;;;;;;;;;;;;;;;;5067029;28;19927;-61
2022/06/05 12:02:28;;;;;;;;;;;;;;;;;;5071798;28;19919;-61
2022/06/05 12:04:54;;;;;;;;;;;;;;;;;;5070958;28;19916;-61
2022/06/05 12:07:20;;;;;;;;;;;;;;;;;;5072538;28;19969;-61
2022/06/05 12:09:46;;;;;;;;;;;;;;;;;;5073712;28;19985;-63
2022/06/05 12:12:13;;;;;;;;;;;;;;;;;;5074119;28;20384;-60
2022/06/05 12:14:39;;;;;;;;;;;;;;;;;;5070767;28;19909;-60
2022/06/05 12:17:05;;;;;;;;;;;;;;;;;;5069833;28;19916;-60
2022/06/05 12:19:31;;;;;;;;;;;;;;;;;;5050185;28;20297;-60
2022/06/05 12:21:57;;;;;;;;;;;;;;;;;;5050194;28;19916;-60
2022/06/05 12:24:23;;;;;;;;;;;;;;;;;;5065206;28;19912;-60
2022/06/05 12:26:49;;;;;;;;;;;;;;;;;;5069358;28;19905;-60
2022/06/05 12:29:15;;;;;;;;;;;;;;;;;;5056501;28;19909;-60
2022/06/05 12:31:41;;;;;;;;;;;;;;;;;;5069653;28;19962;-59
2022/06/05 12:34:07;;;;;;;;;;;;;;;;;;5070572;28;20402;-60
2022/06/05 12:36:34;;;;;;;;;;;;;;;;;;5070335;28;19912;-61
2022/06/05 12:39:00;;;;;;;;;;;;;;;;;;5071353;28;19958;-60
2022/06/05 12:41:28;;;;;;;;;;;;;;;;;;5067476;28;19909;-60
2022/06/05 12:43:54;;;;;;;;;;;;;;;;;;5072153;28;19955;-60
2022/06/05 12:46:20;;;;;;;;;;;;;;;;;;5082388;28;19914;-61
2022/06/05 12:48:46;;;;;;;;;;;;;;;;;;5073677;28;19991;-60
2022/06/05 12:51:12;;;;;;;;;;;;;;;;;;5081033;28;20003;-61
2022/06/05 12:53:38;;;;;;;;;;;;;;;;;;5084047;28;20006;-61
2022/06/05 12:56:07;;;;;;;;;;;;;;;;;;5077731;28;20306;-60
2022/06/05 12:58:33;;;;;;;;;;;;;;;;;;5070718;28;19908;-61
2022/06/05 13:00:59;;;;;;;;;;;;;;;;;;5079554;28;19916;-60
2022/06/05 13:03:25;;;;;;;;;;;;;;;;;;5074795;28;19920;-61
2022/06/05 13:05:51;;;;;;;;;;;;;;;;;;5078190;28;19908;-60
2022/06/05 13:08:17;;;;;;;;;;;;;;;;;;5072139;28;19936;-61
2022/06/05 13:10:43;;;;;;;;;;;;;;;;;;5081355;28;19908;-62
2022/06/05 13:13:09;;;;;;;;;;;;;;;;;;5075732;28;19908;-61
2022/06/05 13:15:35;;;;;;;;;;;;;;;;;;5081224;28;19973;-61
2022/06/05 13:18:04;;;;;;;;;;;;;;;;;;5068766;28;19958;-61
2022/06/05 13:20:30;;;;;;;;;;;;;;;;;;5054813;28;19922;-60
2022/06/05 13:22:56;;;;;;;;;;;;;;;;;;5082213;28;19912;-59
2022/06/05 13:25:22;;;;;;;;;;;;;;;;;;5081816;28;19908;-59
2022/06/05 13:27:49;;;;;;;;;;;;;;;;;;5066416;28;19998;-59
2022/06/05 13:30:15;;;;;;;;;;;;;;;;;;5084924;28;19912;-60
2022/06/05 13:32:41;;;;;;;;;;;;;;;;;;5072158;28;19931;-60
2022/06/05 13:35:07;;;;;;;;;;;;;;;;;;5072566;28;19912;-60
2022/06/05 13:37:33;;;;;;;;;;;;;;;;;;5073897;28;20042;-59
2022/06/05 13:39:59;;;;;;;;;;;;;;;;;;5086283;28;19916;-59
2022/06/05 13:42:25;;;;;;;;;;;;;;;;;;5081421;28;19908;-59
2022/06/05 13:44:51;;;;;;;;;;;;;;;;;;5056501;28;19915;-59
2022/06/05 13:47:17;;;;;;;;;;;;;;;;;;5075010;28;19912;-59
2022/06/05 13:49:43;;;;;;;;;;;;;;;;;;5071763;28;20303;-59
2022/06/05 13:52:09;;;;;;;;;;;;;;;;;;5084639;28;19909;-59
2022/06/05 13:54:35;;;;;;;;;;;;;;;;;;5064320;28;19931;-59
2022/06/05 13:57:02;;;;;;;;;;;;;;;;;;5085135;28;19918;-59
2022/06/05 13:59:28;;;;;;;;;;;;;;;;;;5066215;28;19910;-59
2022/06/05 14:01:55;;;;;;;;;;;;;;;;;;5070225;28;19924;-59
2022/06/05 14:04:21;;;;;;;;;;;;;;;;;;5068195;28;19908;-59
2022/06/05 14:06:47;;;;;;;;;;;;;;;;;;5080220;28;20229;-59
2022/06/05 14:09:13;;;;;;;;;;;;;;;;;;5067105;28;20018;-59
2022/06/05 14:11:39;;;;;;;;;;;;;;;;;;5065535;28;20405;-59
2022/06/05 14:14:06;;;;;;;;;;;;;;;;;;5080337;28;19914;-59
2022/06/05 14:16:33;;;;;;;;;;;;;;;;;;5084094;28;19911;-59
2022/06/05 14:18:59;;;;;;;;;;;;;;;;;;5084833;28;19912;-59
2022/06/05 14:21:25;;;;;;;;;;;;;;;;;;5058322;28;19912;-59
2022/06/05 14:23:51;;;;;;;;;;;;;;;;;;5048082;28;19909;-60
2022/06/05 14:26:17;;;;;;;;;;;;;;;;;;5053492;28;19913;-59
2022/06/05 14:28:43;;;;;;;;;;;;;;;;;;5072814;28;19995;-60
2022/06/05 14:31:09;;;;;;;;;;;;;;;;;;5067583;28;20027;-60
2022/06/05 14:33:35;;;;;;;;;;;;;;;;;;5047039;28;19995;-59
2022/06/05 14:36:02;;;;;;;;;;;;;;;;;;5056181;28;19909;-59
2022/06/05 14:38:28;;;;;;;;;;;;;;;;;;5064093;28;20555;-59
2022/06/05 14:40:54;;;;;;;;;;;;;;;;;;5071375;28;19920;-60
2022/06/05 14:43:20;;;;;;;;;;;;;;;;;;5066026;28;19908;-61
2022/06/05 14:45:46;;;;;;;;;;;;;;;;;;5067938;28;19912;-59
2022/06/05 14:48:15;;;;;;;;;;;;;;;;;;5064176;28;19958;-59
2022/06/05 14:50:42;;;;;;;;;;;;;;;;;;5065650;28;19939;-60
2022/06/05 14:53:09;;;;;;;;;;;;;;;;;;5055836;28;19966;-60
2022/06/05 14:58:20;;;;;;;;;;;;;;;;;;5070985;28;20368;-59
2022/06/05 15:00:46;;;;;;;;;;;;;;;;;;5054989;28;19965;-59
2022/06/05 15:03:11;;;;;;;;;;;;;;;;;;5064054;28;19904;-59
2022/06/05 15:05:37;;;;;;;;;;;;;;;;;;5064368;28;20399;-59
2022/06/05 15:08:03;;;;;;;;;;;;;;;;;;5082878;28;20416;-59
2022/06/05 15:10:30;;;;;;;;;;;;;;;;;;5075237;28;19913;-59
2022/06/05 15:12:57;;;;;;;;;;;;;;;;;;5069581;28;20276;-59
2022/06/05 15:15:24;;;;;;;;;;;;;;;;;;5085190;28;20296;-60
2022/06/05 15:17:50;;;;;;;;;;;;;;;;;;5084024;28;19908;-60
2022/06/05 15:20:16;;;;;;;;;;;;;;;;;;5072274;28;19931;-60
2022/06/05 15:22:43;;;;;;;;;;;;;;;;;;5067513;28;19908;-60
2022/06/05 15:25:09;;;;;;;;;;;;;;;;;;5080409;28;20395;-60
2022/06/05 15:27:36;;;;;;;;;;;;;;;;;;5067998;28;19926;-60
2022/06/05 15:30:02;;;;;;;;;;;;;;;;;;5086918;28;20364;-60
2022/06/05 15:32:30;;;;;;;;;;;;;;;;;;5080113;28;19909;-60
2022/06/05 15:34:56;;;;;;;;;;;;;;;;;;5076884;28;19908;-60
2022/06/05 15:37:22;;;;;;;;;;;;;;;;;;5077765;28;19908;-60
2022/06/05 15:39:48;;;;;;;;;;;;;;;;;;5068944;28;19913;-60
2022/06/05 15:42:14;;;;;;;;;;;;;;;;;;5073726;28;20571;-60
2022/06/05 15:44:40;;;;;;;;;;;;;;;;;;5074327;28;19916;-60
2022/06/05 15:47:06;;;;;;;;;;;;;;;;;;5070014;28;19915;-60
2022/06/05 15:49:32;;;;;;;;;;;;;;;;;;5075973;28;20295;-60
2022/06/05 15:51:59;;;;;;;;;;;;;;;;;;5072068;28;19912;-60
2022/06/05 15:54:24;;;;;;;;;;;;;;;;;;5070901;28;20387;-59
2022/06/05 15:56:50;;;;;;;;;;;;;;;;;;5078860;28;19959;-59
2022/06/05 15:59:16;;;;;;;;;;;;;;;;;;5075094;28;19911;-59
2022/06/05 16:01:43;;;;;;;;;;;;;;;;;;5077752;28;20444;-60
2022/06/05 16:04:10;;;;;;;;;;;;;;;;;;5078583;28;20302;-60
2022/06/05 16:06:36;;;;;;;;;;;;;;;;;;5074705;28;19915;-59
2022/06/05 16:09:02;;;;;;;;;;;;;;;;;;5076144;28;19908;-60
2022/06/05 16:11:28;;;;;;;;;;;;;;;;;;5082196;28;20488;-60
2022/06/05 16:13:54;;;;;;;;;;;;;;;;;;5068457;28;20375;-60
2022/06/05 16:16:20;;;;;;;;;;;;;;;;;;5061372;28;20364;-60
2022/06/05 16:18:45;;;;;;;;;;;;;;;;;;5075860;28;19935;-60
2022/06/05 16:21:11;;;;;;;;;;;;;;;;;;5066780;28;19912;-60
2022/06/05 16:23:38;;;;;;;;;;;;;;;;;;5079650;28;19951;-61
2022/06/05 16:26:04;;;;;;;;;;;;;;;;;;5079000;28;19919;-60
2022/06/05 16:28:31;;;;;;;;;;;;;;;;;;5082041;28;19911;-60
2022/06/05 16:30:57;;;;;;;;;;;;;;;;;;5072647;28;20015;-60
2022/06/05 16:33:23;;;;;;;;;;;;;;;;;;5070096;28;20470;-60
2022/06/05 16:38:33;;;;;;;;;;;;;;;;;;5055761;28;19919;-59
2022/06/05 16:40:59;;;;;;;;;;;;;;;;;;5077157;28;19912;-59
2022/06/05 16:43:27;;;;;;;;;;;;;;;;;;5068659;28;19916;-59
2022/06/05 16:45:54;;;;;;;;;;;;;;;;;;5074428;28;19939;-59
2022/06/05 16:48:20;;;;;;;;;;;;;;;;;;5072717;28;20458;-61
2022/06/05 16:50:46;;;;;;;;;;;;;;;;;;5075467;28;20295;-60
2022/06/05 16:53:12;;;;;;;;;;;;;;;;;;5071528;28;19908;-60
2022/06/05 16:55:37;;;;;;;;;;;;;;;;;;5067111;28;19923;-62
2022/06/05 16:58:03;;;;;;;;;;;;;;;;;;5073701;28;19909;-60
2022/06/05 17:00:29;;;;;;;;;;;;;;;;;;5069589;28;20039;-60